sensor_id;sensor_type;location;lat;lon;timestamp;pressure;altitude;pressure_sealevel;temperature;humidity
80248;BME280;69560;52.206;21.018;2024-01-11T00:02:12;101006.69;;;-4.50;54.15
80248;BME280;69560;52.206;21.018;2024-01-11T00:04:39;100996.74;;;-4.53;54.18
80248;BME280;69560;52.206;21.018;2024-01-11T00:07:06;100993.98;;;-4.53;54.31
80248;BME280;69560;52.206;21.018;2024-01-11T00:09:33;100988.59;;;-4.52;54.34
80248;BME280;69560;52.206;21.018;2024-01-11T00:11:59;100981.81;;;-4.53;54.29
80248;BME280;69560;52.206;21.018;2024-01-11T00:14:28;100979.48;;;-4.52;54.32
80248;BME280;69560;52.206;21.018;2024-01-11T00:16:56;100969.52;;;-4.55;54.32
80248;BME280;69560;52.206;21.018;2024-01-11T00:19:22;100970.02;;;-4.55;54.41
80248;BME280;69560;52.206;21.018;2024-01-11T00:21:48;100971.47;;;-4.60;54.31
80248;BME280;69560;52.206;21.018;2024-01-11T00:24:15;100968.46;;;-4.61;54.44
80248;BME280;69560;52.206;21.018;2024-01-11T00:26:42;100968.04;;;-4.61;54.56
80248;BME280;69560;52.206;21.018;2024-01-11T00:29:08;100970.81;;;-4.60;54.52
80248;BME280;69560;52.206;21.018;2024-01-11T00:31:35;100972.77;;;-4.60;54.52
80248;BME280;69560;52.206;21.018;2024-01-11T00:34:01;100968.29;;;-4.59;54.65
80248;BME280;69560;52.206;21.018;2024-01-11T00:36:28;100974.91;;;-4.58;54.72
80248;BME280;69560;52.206;21.018;2024-01-11T00:38:55;100981.50;;;-4.54;54.81
80248;BME280;69560;52.206;21.018;2024-01-11T00:41:21;100981.97;;;-4.52;54.80
80248;BME280;69560;52.206;21.018;2024-01-11T00:43:47;100983.60;;;-4.51;54.79
80248;BME280;69560;52.206;21.018;2024-01-11T00:46:14;100969.38;;;-4.50;54.83
80248;BME280;69560;52.206;21.018;2024-01-11T00:48:40;100964.73;;;-4.50;54.78
80248;BME280;69560;52.206;21.018;2024-01-11T00:51:07;100975.98;;;-4.50;54.82
80248;BME280;69560;52.206;21.018;2024-01-11T00:53:33;100989.92;;;-4.48;54.95
80248;BME280;69560;52.206;21.018;2024-01-11T00:56:00;101004.91;;;-4.45;54.95
80248;BME280;69560;52.206;21.018;2024-01-11T00:58:27;101005.41;;;-4.44;54.94
80248;BME280;69560;52.206;21.018;2024-01-11T01:00:53;101000.70;;;-4.44;54.86
80248;BME280;69560;52.206;21.018;2024-01-11T01:03:21;100979.92;;;-4.43;54.87
80248;BME280;69560;52.206;21.018;2024-01-11T01:05:48;100966.52;;;-4.44;54.91
80248;BME280;69560;52.206;21.018;2024-01-11T01:08:14;100952.25;;;-4.42;54.96
80248;BME280;69560;52.206;21.018;2024-01-11T01:10:41;100945.57;;;-4.41;54.93
80248;BME280;69560;52.206;21.018;2024-01-11T01:13:07;100960.69;;;-4.43;54.92
80248;BME280;69560;52.206;21.018;2024-01-11T01:15:34;100973.64;;;-4.47;54.88
80248;BME280;69560;52.206;21.018;2024-01-11T01:18:00;100978.84;;;-4.47;55.03
80248;BME280;69560;52.206;21.018;2024-01-11T01:20:27;100975.54;;;-4.47;55.05
80248;BME280;69560;52.206;21.018;2024-01-11T01:22:55;100973.96;;;-4.47;55.10
80248;BME280;69560;52.206;21.018;2024-01-11T01:25:21;100965.28;;;-4.44;55.16
80248;BME280;69560;52.206;21.018;2024-01-11T01:27:47;100975.08;;;-4.40;55.29
80248;BME280;69560;52.206;21.018;2024-01-11T01:30:14;100973.35;;;-4.35;55.39
80248;BME280;69560;52.206;21.018;2024-01-11T01:32:41;100962.73;;;-4.32;55.30
80248;BME280;69560;52.206;21.018;2024-01-11T01:35:07;100960.84;;;-4.32;55.33
80248;BME280;69560;52.206;21.018;2024-01-11T01:37:34;100966.77;;;-4.30;55.31
80248;BME280;69560;52.206;21.018;2024-01-11T01:40:00;100974.20;;;-4.28;55.39
80248;BME280;69560;52.206;21.018;2024-01-11T01:42:29;100966.73;;;-4.25;55.44
80248;BME280;69560;52.206;21.018;2024-01-11T01:44:55;100965.09;;;-4.24;55.34
80248;BME280;69560;52.206;21.018;2024-01-11T01:47:22;100951.84;;;-4.23;55.44
80248;BME280;69560;52.206;21.018;2024-01-11T01:49:49;100956.38;;;-4.20;55.52
80248;BME280;69560;52.206;21.018;2024-01-11T01:52:16;100952.67;;;-4.15;55.59
80248;BME280;69560;52.206;21.018;2024-01-11T01:54:43;100942.54;;;-4.11;55.66
80248;BME280;69560;52.206;21.018;2024-01-11T01:57:10;100944.59;;;-4.08;55.58
80248;BME280;69560;52.206;21.018;2024-01-11T01:59:38;100950.08;;;-4.06;55.59
80248;BME280;69560;52.206;21.018;2024-01-11T02:02:06;100950.27;;;-4.04;55.56
80248;BME280;69560;52.206;21.018;2024-01-11T02:04:33;100945.39;;;-4.03;55.60
80248;BME280;69560;52.206;21.018;2024-01-11T02:07:01;100947.38;;;-4.10;55.43
80248;BME280;69560;52.206;21.018;2024-01-11T02:09:28;100949.67;;;-4.13;55.50
80248;BME280;69560;52.206;21.018;2024-01-11T02:11:55;100941.43;;;-4.13;55.58
80248;BME280;69560;52.206;21.018;2024-01-11T02:14:21;100942.96;;;-4.12;55.70
80248;BME280;69560;52.206;21.018;2024-01-11T02:16:48;100949.10;;;-4.10;55.73
80248;BME280;69560;52.206;21.018;2024-01-11T02:19:17;100937.36;;;-4.10;55.85
80248;BME280;69560;52.206;21.018;2024-01-11T02:21:46;100936.57;;;-4.07;55.92
80248;BME280;69560;52.206;21.018;2024-01-11T02:24:14;100947.00;;;-4.05;56.00
80248;BME280;69560;52.206;21.018;2024-01-11T02:27:01;100951.41;;;-4.04;56.02
80248;BME280;69560;52.206;21.018;2024-01-11T02:29:31;100937.26;;;-4.04;55.95
80248;BME280;69560;52.206;21.018;2024-01-11T02:32:00;100931.48;;;-4.01;56.09
80248;BME280;69560;52.206;21.018;2024-01-11T02:34:28;100939.92;;;-3.98;56.10
80248;BME280;69560;52.206;21.018;2024-01-11T02:36:55;100932.45;;;-3.97;56.18
80248;BME280;69560;52.206;21.018;2024-01-11T02:39:23;100937.39;;;-3.97;56.16
80248;BME280;69560;52.206;21.018;2024-01-11T02:41:51;100930.08;;;-3.96;56.21
80248;BME280;69560;52.206;21.018;2024-01-11T02:44:17;100923.33;;;-3.93;56.32
80248;BME280;69560;52.206;21.018;2024-01-11T02:46:44;100922.58;;;-3.93;56.33
80248;BME280;69560;52.206;21.018;2024-01-11T02:49:10;100919.29;;;-3.87;56.49
80248;BME280;69560;52.206;21.018;2024-01-11T02:51:36;100916.38;;;-3.79;56.51
80248;BME280;69560;52.206;21.018;2024-01-11T02:54:04;100928.36;;;-3.73;56.44
80248;BME280;69560;52.206;21.018;2024-01-11T02:56:30;100936.73;;;-3.64;56.53
80248;BME280;69560;52.206;21.018;2024-01-11T02:58:57;100927.15;;;-3.57;56.54
80248;BME280;69560;52.206;21.018;2024-01-11T03:01:23;100937.91;;;-3.53;56.46
80248;BME280;69560;52.206;21.018;2024-01-11T03:03:49;100939.95;;;-3.50;56.52
80248;BME280;69560;52.206;21.018;2024-01-11T03:06:16;100935.63;;;-3.47;56.64
80248;BME280;69560;52.206;21.018;2024-01-11T03:08:48;100918.36;;;-3.44;56.59
80248;BME280;69560;52.206;21.018;2024-01-11T03:11:15;100912.40;;;-3.42;56.61
80248;BME280;69560;52.206;21.018;2024-01-11T03:13:43;100902.58;;;-3.43;56.61
80248;BME280;69560;52.206;21.018;2024-01-11T03:16:09;100903.40;;;-3.42;56.72
80248;BME280;69560;52.206;21.018;2024-01-11T03:18:35;100915.69;;;-3.44;56.68
80248;BME280;69560;52.206;21.018;2024-01-11T03:21:02;100904.88;;;-3.48;56.60
80248;BME280;69560;52.206;21.018;2024-01-11T03:23:29;100904.58;;;-3.52;56.68
80248;BME280;69560;52.206;21.018;2024-01-11T03:25:55;100912.88;;;-3.50;56.88
80248;BME280;69560;52.206;21.018;2024-01-11T03:28:21;100921.08;;;-3.49;56.90
80248;BME280;69560;52.206;21.018;2024-01-11T03:30:48;100908.52;;;-3.50;56.92
80248;BME280;69560;52.206;21.018;2024-01-11T03:33:14;100891.11;;;-3.52;56.89
80248;BME280;69560;52.206;21.018;2024-01-11T03:35:41;100887.91;;;-3.54;56.93
80248;BME280;69560;52.206;21.018;2024-01-11T03:38:10;100871.13;;;-3.56;57.10
80248;BME280;69560;52.206;21.018;2024-01-11T03:40:36;100852.53;;;-3.55;57.22
80248;BME280;69560;52.206;21.018;2024-01-11T03:43:03;100843.45;;;-3.59;57.09
80248;BME280;69560;52.206;21.018;2024-01-11T03:45:29;100842.84;;;-3.62;57.17
80248;BME280;69560;52.206;21.018;2024-01-11T03:47:55;100837.58;;;-3.61;57.23
80248;BME280;69560;52.206;21.018;2024-01-11T03:50:22;100829.56;;;-3.60;57.18
80248;BME280;69560;52.206;21.018;2024-01-11T03:52:49;100826.81;;;-3.65;57.13
80248;BME280;69560;52.206;21.018;2024-01-11T03:55:15;100820.96;;;-3.64;57.28
80248;BME280;69560;52.206;21.018;2024-01-11T03:57:41;100821.79;;;-3.62;57.38
80248;BME280;69560;52.206;21.018;2024-01-11T04:00:10;100819.24;;;-3.69;57.31
80248;BME280;69560;52.206;21.018;2024-01-11T04:02:37;100816.19;;;-3.78;57.36
80248;BME280;69560;52.206;21.018;2024-01-11T04:05:04;100825.33;;;-3.81;57.47
80248;BME280;69560;52.206;21.018;2024-01-11T04:07:31;100827.38;;;-3.83;57.68
80248;BME280;69560;52.206;21.018;2024-01-11T04:09:57;100826.37;;;-3.80;57.87
80248;BME280;69560;52.206;21.018;2024-01-11T04:12:24;100822.13;;;-3.76;58.10
80248;BME280;69560;52.206;21.018;2024-01-11T04:14:50;100812.05;;;-3.74;58.15
80248;BME280;69560;52.206;21.018;2024-01-11T04:17:17;100813.91;;;-3.72;58.20
80248;BME280;69560;52.206;21.018;2024-01-11T04:19:43;100820.45;;;-3.73;58.20
80248;BME280;69560;52.206;21.018;2024-01-11T04:22:10;100822.63;;;-3.73;58.29
80248;BME280;69560;52.206;21.018;2024-01-11T04:24:36;100824.00;;;-3.72;58.35
80248;BME280;69560;52.206;21.018;2024-01-11T04:27:03;100831.77;;;-3.71;58.37
80248;BME280;69560;52.206;21.018;2024-01-11T04:29:29;100819.34;;;-3.70;58.41
80248;BME280;69560;52.206;21.018;2024-01-11T04:31:56;100821.17;;;-3.72;58.27
80248;BME280;69560;52.206;21.018;2024-01-11T04:34:22;100813.26;;;-3.71;58.40
80248;BME280;69560;52.206;21.018;2024-01-11T04:36:49;100813.59;;;-3.69;58.52
80248;BME280;69560;52.206;21.018;2024-01-11T04:39:15;100826.90;;;-3.66;58.69
80248;BME280;69560;52.206;21.018;2024-01-11T04:41:42;100835.56;;;-3.61;58.85
80248;BME280;69560;52.206;21.018;2024-01-11T04:44:08;100834.71;;;-3.58;58.87
80248;BME280;69560;52.206;21.018;2024-01-11T04:46:35;100835.17;;;-3.57;58.84
80248;BME280;69560;52.206;21.018;2024-01-11T04:49:04;100830.13;;;-3.57;58.87
80248;BME280;69560;52.206;21.018;2024-01-11T04:51:30;100823.73;;;-3.55;58.95
80248;BME280;69560;52.206;21.018;2024-01-11T04:53:56;100821.04;;;-3.55;59.05
80248;BME280;69560;52.206;21.018;2024-01-11T04:56:23;100826.84;;;-3.54;59.13
80248;BME280;69560;52.206;21.018;2024-01-11T04:58:50;100830.96;;;-3.52;59.16
80248;BME280;69560;52.206;21.018;2024-01-11T05:01:17;100826.58;;;-3.52;59.25
80248;BME280;69560;52.206;21.018;2024-01-11T05:03:46;100826.70;;;-3.49;59.29
80248;BME280;69560;52.206;21.018;2024-01-11T05:06:17;100824.66;;;-3.47;59.30
80248;BME280;69560;52.206;21.018;2024-01-11T05:08:44;100822.58;;;-3.41;59.33
80248;BME280;69560;52.206;21.018;2024-01-11T05:11:18;100812.24;;;-3.36;59.47
80248;BME280;69560;52.206;21.018;2024-01-11T05:13:46;100814.36;;;-3.28;59.47
80248;BME280;69560;52.206;21.018;2024-01-11T05:16:27;100804.84;;;-3.21;59.45
80248;BME280;69560;52.206;21.018;2024-01-11T05:18:55;100796.94;;;-3.18;59.42
80248;BME280;69560;52.206;21.018;2024-01-11T05:21:23;100800.58;;;-3.16;59.43
80248;BME280;69560;52.206;21.018;2024-01-11T05:23:49;100791.96;;;-3.14;59.41
80248;BME280;69560;52.206;21.018;2024-01-11T05:26:19;100780.72;;;-3.17;59.23
80248;BME280;69560;52.206;21.018;2024-01-11T05:28:46;100771.58;;;-3.23;59.18
80248;BME280;69560;52.206;21.018;2024-01-11T05:31:14;100769.77;;;-3.28;59.32
80248;BME280;69560;52.206;21.018;2024-01-11T05:33:41;100765.02;;;-3.32;59.39
80248;BME280;69560;52.206;21.018;2024-01-11T05:36:08;100762.20;;;-3.33;59.48
80248;BME280;69560;52.206;21.018;2024-01-11T05:38:35;100765.05;;;-3.34;59.54
80248;BME280;69560;52.206;21.018;2024-01-11T05:41:01;100765.88;;;-3.33;59.66
80248;BME280;69560;52.206;21.018;2024-01-11T05:43:28;100761.60;;;-3.32;59.74
80248;BME280;69560;52.206;21.018;2024-01-11T05:45:54;100751.25;;;-3.31;59.68
80248;BME280;69560;52.206;21.018;2024-01-11T05:48:21;100749.66;;;-3.33;59.64
80248;BME280;69560;52.206;21.018;2024-01-11T05:50:47;100752.38;;;-3.32;59.73
80248;BME280;69560;52.206;21.018;2024-01-11T05:53:14;100755.27;;;-3.29;59.71
80248;BME280;69560;52.206;21.018;2024-01-11T05:55:40;100749.04;;;-3.26;59.67
80248;BME280;69560;52.206;21.018;2024-01-11T05:58:07;100746.72;;;-3.21;59.79
80248;BME280;69560;52.206;21.018;2024-01-11T06:00:33;100742.55;;;-3.19;59.75
80248;BME280;69560;52.206;21.018;2024-01-11T06:03:00;100735.56;;;-3.20;59.54
80248;BME280;69560;52.206;21.018;2024-01-11T06:05:26;100734.40;;;-3.24;59.51
80248;BME280;69560;52.206;21.018;2024-01-11T06:07:53;100731.48;;;-3.23;59.69
80248;BME280;69560;52.206;21.018;2024-01-11T06:10:19;100726.33;;;-3.21;59.69
80248;BME280;69560;52.206;21.018;2024-01-11T06:12:45;100721.27;;;-3.21;59.72
80248;BME280;69560;52.206;21.018;2024-01-11T06:15:12;100716.00;;;-3.24;59.76
80248;BME280;69560;52.206;21.018;2024-01-11T06:17:38;100717.91;;;-3.23;59.68
80248;BME280;69560;52.206;21.018;2024-01-11T06:20:05;100724.36;;;-3.24;59.75
80248;BME280;69560;52.206;21.018;2024-01-11T06:22:32;100721.11;;;-3.23;59.73
80248;BME280;69560;52.206;21.018;2024-01-11T06:24:59;100716.77;;;-3.21;59.75
80248;BME280;69560;52.206;21.018;2024-01-11T06:27:26;100707.13;;;-3.17;59.74
80248;BME280;69560;52.206;21.018;2024-01-11T06:29:52;100701.55;;;-3.15;59.70
80248;BME280;69560;52.206;21.018;2024-01-11T06:32:19;100706.99;;;-3.12;59.78
80248;BME280;69560;52.206;21.018;2024-01-11T06:34:45;100708.23;;;-3.11;59.80
80248;BME280;69560;52.206;21.018;2024-01-11T06:37:13;100706.77;;;-3.11;59.77
80248;BME280;69560;52.206;21.018;2024-01-11T06:39:40;100700.26;;;-3.09;59.81
80248;BME280;69560;52.206;21.018;2024-01-11T06:42:06;100697.45;;;-3.09;59.83
80248;BME280;69560;52.206;21.018;2024-01-11T06:44:33;100696.79;;;-3.10;59.74
80248;BME280;69560;52.206;21.018;2024-01-11T06:46:59;100694.25;;;-3.09;59.94
80248;BME280;69560;52.206;21.018;2024-01-11T06:49:27;100691.10;;;-3.07;59.99
80248;BME280;69560;52.206;21.018;2024-01-11T06:51:54;100686.55;;;-3.08;59.98
80248;BME280;69560;52.206;21.018;2024-01-11T06:54:21;100689.85;;;-3.08;59.93
80248;BME280;69560;52.206;21.018;2024-01-11T06:56:47;100691.81;;;-3.07;60.01
80248;BME280;69560;52.206;21.018;2024-01-11T06:59:14;100689.00;;;-3.02;60.23
80248;BME280;69560;52.206;21.018;2024-01-11T07:01:40;100684.52;;;-2.95;60.19
80248;BME280;69560;52.206;21.018;2024-01-11T07:04:06;100686.52;;;-2.89;60.26
80248;BME280;69560;52.206;21.018;2024-01-11T07:06:33;100685.08;;;-2.83;60.26
80248;BME280;69560;52.206;21.018;2024-01-11T07:08:59;100680.73;;;-2.81;60.27
80248;BME280;69560;52.206;21.018;2024-01-11T07:11:26;100669.11;;;-2.80;60.34
80248;BME280;69560;52.206;21.018;2024-01-11T07:13:52;100671.23;;;-2.79;60.34
80248;BME280;69560;52.206;21.018;2024-01-11T07:16:20;100670.36;;;-2.80;60.40
80248;BME280;69560;52.206;21.018;2024-01-11T07:18:46;100670.59;;;-2.81;60.57
80248;BME280;69560;52.206;21.018;2024-01-11T07:21:13;100672.55;;;-2.77;60.69
80248;BME280;69560;52.206;21.018;2024-01-11T07:23:46;100668.47;;;-2.77;60.70
80248;BME280;69560;52.206;21.018;2024-01-11T07:26:12;100667.60;;;-2.73;60.85
80248;BME280;69560;52.206;21.018;2024-01-11T07:28:39;100657.79;;;-2.71;60.93
80248;BME280;69560;52.206;21.018;2024-01-11T07:31:05;100666.33;;;-2.69;60.97
80248;BME280;69560;52.206;21.018;2024-01-11T07:33:32;100663.06;;;-2.67;60.99
80248;BME280;69560;52.206;21.018;2024-01-11T07:35:58;100663.66;;;-2.62;60.96
80248;BME280;69560;52.206;21.018;2024-01-11T07:38:25;100665.63;;;-2.56;61.00
80248;BME280;69560;52.206;21.018;2024-01-11T07:40:51;100664.15;;;-2.47;61.15
80248;BME280;69560;52.206;21.018;2024-01-11T07:43:17;100649.64;;;-2.41;61.11
80248;BME280;69560;52.206;21.018;2024-01-11T07:45:44;100652.85;;;-2.39;61.15
80248;BME280;69560;52.206;21.018;2024-01-11T07:48:10;100651.48;;;-2.35;61.16
80248;BME280;69560;52.206;21.018;2024-01-11T07:50:37;100650.08;;;-2.38;60.90
80248;BME280;69560;52.206;21.018;2024-01-11T07:53:03;100654.53;;;-2.36;61.09
80248;BME280;69560;52.206;21.018;2024-01-11T07:55:31;100651.98;;;-2.34;61.24
80248;BME280;69560;52.206;21.018;2024-01-11T07:57:58;100660.83;;;-2.33;61.28
80248;BME280;69560;52.206;21.018;2024-01-11T08:00:25;100663.01;;;-2.35;61.16
80248;BME280;69560;52.206;21.018;2024-01-11T08:02:51;100663.83;;;-2.38;61.25
80248;BME280;69560;52.206;21.018;2024-01-11T08:05:17;100668.13;;;-2.36;61.29
80248;BME280;69560;52.206;21.018;2024-01-11T08:07:44;100673.81;;;-2.30;61.38
80248;BME280;69560;52.206;21.018;2024-01-11T08:10:10;100672.52;;;-2.25;61.41
80248;BME280;69560;52.206;21.018;2024-01-11T08:12:40;100672.01;;;-2.19;61.42
80248;BME280;69560;52.206;21.018;2024-01-11T08:15:09;100677.55;;;-2.15;61.43
80248;BME280;69560;52.206;21.018;2024-01-11T08:17:44;100681.09;;;-2.13;61.54
80248;BME280;69560;52.206;21.018;2024-01-11T08:20:11;100680.76;;;-2.14;61.50
80248;BME280;69560;52.206;21.018;2024-01-11T08:22:44;100671.79;;;-2.13;61.63
80248;BME280;69560;52.206;21.018;2024-01-11T08:25:13;100674.56;;;-2.10;61.77
80248;BME280;69560;52.206;21.018;2024-01-11T08:27:39;100670.55;;;-2.08;61.75
80248;BME280;69560;52.206;21.018;2024-01-11T08:30:08;100674.89;;;-2.10;61.64
80248;BME280;69560;52.206;21.018;2024-01-11T08:32:34;100680.49;;;-2.12;61.71
80248;BME280;69560;52.206;21.018;2024-01-11T08:35:06;100684.95;;;-2.11;61.77
80248;BME280;69560;52.206;21.018;2024-01-11T08:37:33;100678.27;;;-2.08;61.76
80248;BME280;69560;52.206;21.018;2024-01-11T08:39:59;100680.70;;;-2.03;61.94
80248;BME280;69560;52.206;21.018;2024-01-11T08:42:26;100683.20;;;-1.97;62.01
80248;BME280;69560;52.206;21.018;2024-01-11T08:44:52;100687.15;;;-1.96;61.98
80248;BME280;69560;52.206;21.018;2024-01-11T08:47:19;100683.79;;;-1.96;61.92
80248;BME280;69560;52.206;21.018;2024-01-11T08:49:45;100685.91;;;-1.95;62.10
80248;BME280;69560;52.206;21.018;2024-01-11T08:52:15;100685.26;;;-1.95;62.11
80248;BME280;69560;52.206;21.018;2024-01-11T08:54:41;100686.88;;;-1.97;62.10
80248;BME280;69560;52.206;21.018;2024-01-11T08:57:08;100672.98;;;-2.00;62.16
80248;BME280;69560;52.206;21.018;2024-01-11T08:59:34;100672.48;;;-2.01;62.21
80248;BME280;69560;52.206;21.018;2024-01-11T09:02:01;100670.91;;;-2.01;62.32
80248;BME280;69560;52.206;21.018;2024-01-11T09:04:27;100669.11;;;-2.00;62.30
80248;BME280;69560;52.206;21.018;2024-01-11T09:06:55;100666.29;;;-2.01;62.16
80248;BME280;69560;52.206;21.018;2024-01-11T09:09:22;100665.09;;;-2.00;62.21
80248;BME280;69560;52.206;21.018;2024-01-11T09:11:49;100662.96;;;-1.98;62.47
80248;BME280;69560;52.206;21.018;2024-01-11T09:14:15;100661.60;;;-1.96;62.69
80248;BME280;69560;52.206;21.018;2024-01-11T09:16:42;100660.02;;;-1.92;62.74
80248;BME280;69560;52.206;21.018;2024-01-11T09:19:11;100657.23;;;-1.91;62.77
80248;BME280;69560;52.206;21.018;2024-01-11T09:21:37;100653.10;;;-1.88;62.88
80248;BME280;69560;52.206;21.018;2024-01-11T09:24:04;100647.64;;;-1.86;62.79
80248;BME280;69560;52.206;21.018;2024-01-11T09:26:30;100648.02;;;-1.81;62.79
80248;BME280;69560;52.206;21.018;2024-01-11T09:28:57;100641.96;;;-1.73;62.73
80248;BME280;69560;52.206;21.018;2024-01-11T09:31:24;100635.80;;;-1.65;62.70
80248;BME280;69560;52.206;21.018;2024-01-11T09:33:50;100629.52;;;-1.58;62.64
80248;BME280;69560;52.206;21.018;2024-01-11T09:36:17;100626.05;;;-1.52;62.62
80248;BME280;69560;52.206;21.018;2024-01-11T09:38:46;100621.34;;;-1.44;62.69
80248;BME280;69560;52.206;21.018;2024-01-11T09:41:14;100620.11;;;-1.37;62.49
80248;BME280;69560;52.206;21.018;2024-01-11T09:43:41;100615.73;;;-1.31;62.47
80248;BME280;69560;52.206;21.018;2024-01-11T09:46:11;100619.40;;;-1.28;62.44
80248;BME280;69560;52.206;21.018;2024-01-11T09:48:42;100606.73;;;-1.28;62.34
80248;BME280;69560;52.206;21.018;2024-01-11T09:51:10;100602.84;;;-1.27;62.26
80248;BME280;69560;52.206;21.018;2024-01-11T09:53:55;100602.08;;;-1.25;62.26
80248;BME280;69560;52.206;21.018;2024-01-11T09:56:25;100603.80;;;-1.23;62.25
80248;BME280;69560;52.206;21.018;2024-01-11T09:58:55;100597.16;;;-1.22;62.14
80248;BME280;69560;52.206;21.018;2024-01-11T10:01:22;100595.73;;;-1.19;62.10
80248;BME280;69560;52.206;21.018;2024-01-11T10:03:49;100592.66;;;-1.15;62.14
80248;BME280;69560;52.206;21.018;2024-01-11T10:06:17;100587.14;;;-1.12;62.18
80248;BME280;69560;52.206;21.018;2024-01-11T10:08:45;100583.88;;;-1.12;62.05
80248;BME280;69560;52.206;21.018;2024-01-11T10:11:11;100578.55;;;-1.13;62.12
80248;BME280;69560;52.206;21.018;2024-01-11T10:13:37;100583.02;;;-1.14;62.06
80248;BME280;69560;52.206;21.018;2024-01-11T10:16:09;100581.60;;;-1.15;62.06
80248;BME280;69560;52.206;21.018;2024-01-11T10:18:43;100577.59;;;-1.18;62.13
80248;BME280;69560;52.206;21.018;2024-01-11T10:21:13;100582.34;;;-1.20;62.12
80248;BME280;69560;52.206;21.018;2024-01-11T10:23:41;100583.69;;;-1.17;62.24
80248;BME280;69560;52.206;21.018;2024-01-11T10:26:07;100588.61;;;-1.13;62.16
80248;BME280;69560;52.206;21.018;2024-01-11T10:28:35;100582.75;;;-1.07;62.33
80248;BME280;69560;52.206;21.018;2024-01-11T10:31:04;100578.56;;;-1.01;62.30
80248;BME280;69560;52.206;21.018;2024-01-11T10:33:33;100573.96;;;-0.98;62.34
80248;BME280;69560;52.206;21.018;2024-01-11T10:36:00;100576.13;;;-0.97;62.41
80248;BME280;69560;52.206;21.018;2024-01-11T10:38:30;100579.29;;;-0.95;62.27
80248;BME280;69560;52.206;21.018;2024-01-11T10:40:59;100574.27;;;-0.92;62.35
80248;BME280;69560;52.206;21.018;2024-01-11T10:43:27;100582.14;;;-0.91;62.40
80248;BME280;69560;52.206;21.018;2024-01-11T10:46:11;100574.66;;;-0.88;62.39
80248;BME280;69560;52.206;21.018;2024-01-11T10:48:38;100567.56;;;-0.84;62.48
80248;BME280;69560;52.206;21.018;2024-01-11T10:51:08;100561.86;;;-0.80;62.41
80248;BME280;69560;52.206;21.018;2024-01-11T10:53:48;100561.92;;;-0.76;62.50
80248;BME280;69560;52.206;21.018;2024-01-11T10:56:17;100560.95;;;-0.68;62.44
80248;BME280;69560;52.206;21.018;2024-01-11T10:58:46;100560.69;;;-0.65;62.33
80248;BME280;69560;52.206;21.018;2024-01-11T11:01:16;100553.88;;;-0.59;62.32
80248;BME280;69560;52.206;21.018;2024-01-11T11:03:43;100549.99;;;-0.51;62.49
80248;BME280;69560;52.206;21.018;2024-01-11T11:06:11;100543.89;;;-0.46;62.44
80248;BME280;69560;52.206;21.018;2024-01-11T11:08:39;100534.79;;;-0.52;62.13
80248;BME280;69560;52.206;21.018;2024-01-11T11:11:07;100542.00;;;-0.53;62.33
80248;BME280;69560;52.206;21.018;2024-01-11T11:13:34;100533.59;;;-0.51;62.47
80248;BME280;69560;52.206;21.018;2024-01-11T11:16:01;100533.09;;;-0.50;62.39
80248;BME280;69560;52.206;21.018;2024-01-11T11:18:31;100527.02;;;-0.53;62.31
80248;BME280;69560;52.206;21.018;2024-01-11T11:21:01;100521.41;;;-0.55;62.41
80248;BME280;69560;52.206;21.018;2024-01-11T11:23:33;100516.14;;;-0.50;62.41
80248;BME280;69560;52.206;21.018;2024-01-11T11:26:00;100511.79;;;-0.46;62.54
80248;BME280;69560;52.206;21.018;2024-01-11T11:28:26;100510.94;;;-0.43;62.56
80248;BME280;69560;52.206;21.018;2024-01-11T11:30:53;100512.16;;;-0.39;62.60
80248;BME280;69560;52.206;21.018;2024-01-11T11:33:22;100508.36;;;-0.37;62.66
80248;BME280;69560;52.206;21.018;2024-01-11T11:35:54;100509.58;;;-0.38;62.70
80248;BME280;69560;52.206;21.018;2024-01-11T11:38:31;100507.52;;;-0.39;62.65
80248;BME280;69560;52.206;21.018;2024-01-11T11:40:59;100495.84;;;-0.44;62.57
80248;BME280;69560;52.206;21.018;2024-01-11T11:43:28;100494.42;;;-0.43;62.77
80248;BME280;69560;52.206;21.018;2024-01-11T11:45:54;100497.80;;;-0.38;62.87
80248;BME280;69560;52.206;21.018;2024-01-11T11:51:09;100483.55;;;-0.32;62.92
80248;BME280;69560;52.206;21.018;2024-01-11T11:53:42;100489.38;;;-0.26;62.97
80248;BME280;69560;52.206;21.018;2024-01-11T11:56:10;100492.20;;;-0.28;62.85
80248;BME280;69560;52.206;21.018;2024-01-11T11:58:37;100484.72;;;-0.28;62.88
80248;BME280;69560;52.206;21.018;2024-01-11T12:01:05;100492.26;;;-0.30;62.82
80248;BME280;69560;52.206;21.018;2024-01-11T12:03:41;100497.94;;;-0.30;62.95
80248;BME280;69560;52.206;21.018;2024-01-11T12:06:09;100493.46;;;-0.31;62.96
80248;BME280;69560;52.206;21.018;2024-01-11T12:08:37;100491.75;;;-0.37;62.87
80248;BME280;69560;52.206;21.018;2024-01-11T12:11:04;100506.41;;;-0.37;63.01
80248;BME280;69560;52.206;21.018;2024-01-11T12:13:32;100495.84;;;-0.33;63.05
80248;BME280;69560;52.206;21.018;2024-01-11T12:15:59;100495.02;;;-0.29;63.01
80248;BME280;69560;52.206;21.018;2024-01-11T12:18:26;100505.31;;;-0.23;63.20
80248;BME280;69560;52.206;21.018;2024-01-11T12:20:52;100505.42;;;-0.18;63.30
80248;BME280;69560;52.206;21.018;2024-01-11T12:23:19;100509.16;;;-0.15;63.33
80248;BME280;69560;52.206;21.018;2024-01-11T12:25:46;100497.38;;;-0.15;63.37
80248;BME280;69560;52.206;21.018;2024-01-11T12:28:14;100490.29;;;-0.16;63.29
80248;BME280;69560;52.206;21.018;2024-01-11T12:30:40;100482.96;;;-0.17;63.34
80248;BME280;69560;52.206;21.018;2024-01-11T12:33:07;100476.95;;;-0.16;63.37
80248;BME280;69560;52.206;21.018;2024-01-11T12:35:34;100478.37;;;-0.17;63.35
80248;BME280;69560;52.206;21.018;2024-01-11T12:38:04;100482.05;;;-0.14;63.32
80248;BME280;69560;52.206;21.018;2024-01-11T12:40:33;100484.05;;;-0.09;63.48
80248;BME280;69560;52.206;21.018;2024-01-11T12:43:05;100480.96;;;-0.01;63.54
80248;BME280;69560;52.206;21.018;2024-01-11T12:45:35;100485.48;;;0.04;63.49